Time;durP1;ratioP1;P1;durP2;ratioP2;P2;SDS_P1;SDS_P2;PMS_P1;PMS_P2;Temp;Humidity;BMP_temperature;BMP_pressure;BME280_temperature;BME280_humidity;BME280_pressure;Samples;Min_cycle;Max_cycle;Signal;HPM_P1;HPM_P2
2023/01/14 00:00:46;;;;;;;1.07;0.63;;;;;;;10.06;100.00;60274.75;6253078;28;20237;-44
2023/01/14 00:03:49;;;;;;;2.23;0.80;;;;;;;4.50;100.00;60274.75;6268206;28;20229;-44
2023/01/14 00:06:52;;;;;;;1.83;0.73;;;;;;;4.40;100.00;60274.75;6267423;28;20231;-43
2023/01/14 00:09:54;;;;;;;3.50;0.90;;;;;;;188.01;100.00;60274.75;6267043;28;20227;-44
2023/01/14 00:12:56;;;;;;;4.97;0.70;;;;;;;11.36;100.00;60274.75;6257679;28;20228;-44
2023/01/14 00:16:02;;;;;;;2.43;0.63;;;;;;;21.74;100.00;60274.75;6272366;28;20236;-44
2023/01/14 00:19:05;;;;;;;1.50;0.67;;;;;;;6.17;100.00;60274.75;6260839;28;20234;-43
2023/01/14 00:22:07;;;;;;;1.00;0.60;;;;;;;-144.22;100.00;60274.75;6267644;28;20243;-44
2023/01/14 00:25:10;;;;;;;1.90;0.83;;;;;;;-144.22;100.00;60274.75;6266563;28;20237;-45
2023/01/14 00:28:12;;;;;;;4.60;0.87;;;;;;;4.87;100.00;60274.75;6264352;28;20221;-44
2023/01/14 00:31:17;;;;;;;0.70;0.60;;;;;;;4.85;100.00;60274.75;6266627;28;20228;-44
2023/01/14 00:34:19;;;;;;;2.83;1.07;;;;;;;11.36;100.00;60274.75;6263113;28;20264;-44
2023/01/14 00:37:21;;;;;;;1.83;0.70;;;;;;;6.17;100.00;60274.75;6265856;28;20241;-44
2023/01/14 00:40:23;;;;;;;1.40;0.60;;;;;;;6.17;100.00;60274.75;6251856;28;20798;-44
2023/01/14 00:43:26;;;;;;;2.30;1.07;;;;;;;6.17;100.00;60274.75;6267106;28;20236;-44
2023/01/14 00:46:32;;;;;;;1.07;0.70;;;;;;;11.36;100.00;60274.75;6266718;28;20722;-44
2023/01/14 00:49:34;;;;;;;3.60;0.70;;;;;;;11.36;100.00;60274.75;6265821;28;20309;-44
2023/01/14 00:52:37;;;;;;;0.90;0.50;;;;;;;21.74;100.00;60274.75;6265037;28;20719;-44
2023/01/14 00:55:39;;;;;;;2.30;0.97;;;;;;;11.36;100.00;60274.75;6265701;28;20237;-44
2023/01/14 00:58:41;;;;;;;3.70;1.10;;;;;;;6.17;100.00;60274.75;6265331;28;20236;-44
2023/01/14 01:01:44;;;;;;;2.07;0.83;;;;;;;11.36;100.00;60274.75;6247960;28;20238;-44
2023/01/14 01:04:46;;;;;;;2.47;0.93;;;;;;;5.52;100.00;60274.75;6266462;28;20230;-45
2023/01/14 01:07:48;;;;;;;1.30;0.80;;;;;;;16.55;100.00;60274.75;6264903;28;20243;-44
2023/01/14 01:10:52;;;;;;;0.60;0.60;;;;;;;188.01;100.00;60274.75;6267026;28;20760;-44
2023/01/14 01:13:56;;;;;;;1.70;0.60;;;;;;;4.87;100.00;60274.75;6262569;28;20240;-43
2023/01/14 01:16:58;;;;;;;1.27;0.70;;;;;;;177.61;100.00;60274.75;6267336;28;20260;-44
2023/01/14 01:20:00;;;;;;;2.07;1.00;;;;;;;11.36;100.00;60274.75;6247288;28;20233;-43
2023/01/14 01:23:03;;;;;;;0.90;0.70;;;;;;;4.50;100.00;60274.75;6267032;28;20230;-44
2023/01/14 01:26:10;;;;;;;4.03;1.07;;;;;;;11.36;100.00;60274.75;6265772;28;20310;-43
2023/01/14 01:29:12;;;;;;;2.30;0.90;;;;;;;-144.22;100.00;60274.75;6265169;28;20235;-44
2023/01/14 01:32:17;;;;;;;0.80;0.60;;;;;;;177.61;100.00;60274.75;6267892;28;20236;-44
2023/01/14 01:35:22;;;;;;;2.47;0.93;;;;;;;11.36;100.00;60274.75;6266596;28;20236;-44
2023/01/14 01:38:24;;;;;;;1.50;1.00;;;;;;;177.61;100.00;60274.75;6265923;28;20240;-47
2023/01/14 01:41:29;;;;;;;2.47;1.00;;;;;;;11.36;100.00;60274.75;6249984;28;20234;-44
2023/01/14 01:44:31;;;;;;;1.53;0.97;;;;;;;4.80;100.00;60274.75;6260878;28;20704;-44
2023/01/14 01:47:33;;;;;;;1.80;0.80;;;;;;;6.17;100.00;60274.75;6250149;28;20280;-44
2023/01/14 01:50:36;;;;;;;3.33;1.13;;;;;;;177.61;100.00;60274.75;6266631;28;20256;-44
2023/01/14 01:53:45;;;;;;;4.07;1.30;;;;;;;177.61;100.00;60274.75;6266786;28;20264;-44
2023/01/14 01:56:48;;;;;;;2.57;1.00;;;;;;;177.61;100.00;60274.75;6263169;28;20245;-44
2023/01/14 01:59:57;;;;;;;0.90;0.70;;;;;;;-144.22;100.00;60274.75;6265395;28;20236;-44
2023/01/14 02:03:11;;;;;;;2.27;1.10;;;;;;;4.53;100.00;60274.75;6266140;28;20240;-44
2023/01/14 02:06:15;;;;;;;1.30;0.70;;;;;;;11.36;100.00;60274.75;6262508;28;20236;-44
2023/01/14 02:09:18;;;;;;;3.43;0.90;;;;;;;-144.22;100.00;60274.75;6252031;28;20221;-44
2023/01/14 02:12:46;;;;;;;0.93;0.83;;;;;;;188.01;100.00;60274.75;6264979;28;20226;-44
2023/01/14 02:16:36;;;;;;;2.53;0.80;;;;;;;4.79;100.00;60274.75;6249106;28;20570;-45
2023/01/14 02:20:03;;;;;;;2.90;0.80;;;;;;;4.76;100.00;60274.75;6254379;28;20251;-45
2023/01/14 02:23:26;;;;;;;2.10;0.90;;;;;;;4.67;100.00;60274.75;6261163;28;20269;-45
2023/01/14 02:27:08;;;;;;;2.70;0.83;;;;;;;4.68;100.00;60274.75;6249378;28;20718;-44
2023/01/14 02:30:21;;;;;;;1.37;0.83;;;;;;;-144.22;100.00;60274.75;6244491;28;20225;-44
2023/01/14 02:33:46;;;;;;;0.60;0.60;;;;;;;188.01;100.00;60274.75;6249319;28;20232;-44
2023/01/14 02:37:27;;;;;;;0.67;0.50;;;;;;;4.57;100.00;60274.75;6245821;28;20239;-44
2023/01/14 02:40:39;;;;;;;1.10;0.60;;;;;;;177.61;100.00;60274.75;6241839;28;20221;-44
2023/01/14 02:44:10;;;;;;;2.27;1.00;;;;;;;-144.22;100.00;60274.75;6248770;28;20259;-45
2023/01/14 02:47:23;;;;;;;0.80;0.60;;;;;;;4.72;100.00;60274.75;6246132;28;20654;-45
2023/01/14 02:50:28;;;;;;;1.53;0.67;;;;;;;-144.22;100.00;60274.75;6246013;28;20224;-45
2023/01/14 02:53:30;;;;;;;4.77;0.60;;;;;;;4.65;100.00;60274.75;6263522;28;20231;-44
2023/01/14 02:56:35;;;;;;;1.33;0.63;;;;;;;177.61;100.00;60274.75;6250663;28;20595;-46
2023/01/14 02:59:48;;;;;;;1.20;0.60;;;;;;;11.36;100.00;60274.75;6246761;28;20238;-44
2023/01/14 03:02:53;;;;;;;1.53;0.73;;;;;;;-144.22;100.00;60274.75;6250362;28;20245;-44
2023/01/14 03:06:04;;;;;;;1.57;0.43;;;;;;;-144.22;100.00;60274.75;6269229;28;20331;-43
2023/01/14 03:09:16;;;;;;;2.07;0.60;;;;;;;-144.22;100.00;60274.75;6256528;28;20303;-44
2023/01/14 03:12:30;;;;;;;1.63;0.67;;;;;;;-144.22;100.00;60274.75;6267332;28;20301;-43
2023/01/14 03:15:39;;;;;;;2.50;1.00;;;;;;;11.36;100.00;60274.75;6257978;28;20225;-44
2023/01/14 03:18:59;;;;;;;2.00;0.67;;;;;;;188.01;100.00;60274.75;6268359;28;20242;-44
2023/01/14 03:22:05;;;;;;;3.13;0.90;;;;;;;188.01;100.00;60274.75;6250212;28;20245;-44
2023/01/14 03:25:10;;;;;;;1.67;0.60;;;;;;;-144.22;100.00;60274.75;6263852;28;20246;-44
2023/01/14 03:28:20;;;;;;;3.50;0.90;;;;;;;4.87;100.00;60274.75;6251029;28;20235;-45
2023/01/14 03:31:27;;;;;;;3.60;0.87;;;;;;;188.01;100.00;60274.75;6249396;28;20257;-44
2023/01/14 03:34:36;;;;;;;1.67;0.60;;;;;;;-144.22;100.00;60274.75;6252784;28;20236;-45
2023/01/14 03:37:44;;;;;;;4.03;0.70;;;;;;;188.01;100.00;60274.75;6252927;28;20271;-44
2023/01/14 03:40:50;;;;;;;2.33;0.70;;;;;;;177.61;100.00;60274.75;6267778;28;20313;-44
2023/01/14 03:43:54;;;;;;;1.83;0.67;;;;;;;177.61;100.00;60274.75;6269817;28;20594;-45
2023/01/14 03:46:56;;;;;;;1.73;0.70;;;;;;;21.74;100.00;60274.75;6268706;28;20242;-44
2023/01/14 03:50:02;;;;;;;6.13;1.03;;;;;;;-144.22;100.00;60274.75;6270277;28;20236;-44
2023/01/14 03:53:11;;;;;;;3.57;0.90;;;;;;;177.61;100.00;60274.75;6267195;28;20316;-44
2023/01/14 03:56:25;;;;;;;3.73;0.70;;;;;;;21.74;100.00;60274.75;6268394;28;20232;-44
2023/01/14 03:59:50;;;;;;;1.00;0.67;;;;;;;-144.22;100.00;60274.75;6262768;28;20297;-44
2023/01/14 04:02:56;;;;;;;2.73;1.03;;;;;;;-144.22;100.00;60274.75;6267189;28;20710;-44
2023/01/14 04:05:59;;;;;;;0.70;0.60;;;;;;;-144.22;100.00;60274.75;6251116;28;20332;-44
2023/01/14 04:09:01;;;;;;;2.17;0.73;;;;;;;-144.22;100.00;60274.75;6270183;28;20218;-44
2023/01/14 04:12:04;;;;;;;1.67;1.10;;;;;;;4.55;100.00;60274.75;6266948;28;20217;-44
2023/01/14 04:15:22;;;;;;;3.13;1.43;;;;;;;188.01;100.00;60274.75;6266894;28;20214;-44
2023/01/14 04:18:24;;;;;;;2.43;1.10;;;;;;;-144.22;100.00;60274.75;6263041;28;20227;-44
2023/01/14 04:21:27;;;;;;;2.00;0.80;;;;;;;-144.22;100.00;60274.75;6266726;28;20236;-44
2023/01/14 04:24:29;;;;;;;5.27;0.87;;;;;;;21.74;100.00;60274.75;6266171;28;20237;-43
2023/01/14 04:27:31;;;;;;;3.47;0.90;;;;;;;11.36;100.00;60274.75;6249087;28;20241;-44
2023/01/14 04:30:33;;;;;;;3.63;0.80;;;;;;;-144.22;100.00;60274.75;6267137;28;20259;-43
2023/01/14 04:33:36;;;;;;;5.23;0.83;;;;;;;-144.22;100.00;60274.75;6269698;28;20235;-43
2023/01/14 04:36:38;;;;;;;3.40;0.73;;;;;;;3.50;100.00;60274.75;6264819;28;20309;-43
2023/01/14 04:39:40;;;;;;;4.10;1.00;;;;;;;4.87;100.00;60274.75;6265851;28;20234;-43
2023/01/14 04:42:43;;;;;;;2.20;1.13;;;;;;;3.49;100.00;60274.75;6265588;28;20723;-43
2023/01/14 04:45:52;;;;;;;5.57;0.90;;;;;;;-144.22;100.00;60274.75;6256034;28;20234;-44
2023/01/14 04:48:54;;;;;;;2.33;0.80;;;;;;;188.01;100.00;60274.75;6263635;28;20318;-43
2023/01/14 04:51:56;;;;;;;1.73;1.23;;;;;;;-144.22;100.00;60274.75;6263405;28;20284;-45
2023/01/14 04:54:59;;;;;;;4.10;1.20;;;;;;;177.61;100.00;60274.75;6264161;28;20247;-45
2023/01/14 04:58:03;;;;;;;5.57;1.27;;;;;;;-144.22;100.00;60274.75;6264870;28;20266;-45
2023/01/14 05:01:05;;;;;;;1.70;0.80;;;;;;;21.74;100.00;60274.75;6265652;28;20335;-45
2023/01/14 05:04:07;;;;;;;5.57;1.23;;;;;;;21.74;100.00;60274.75;6264951;28;20532;-46
2023/01/14 05:07:10;;;;;;;3.13;0.70;;;;;;;-144.22;100.00;60274.75;6264858;28;20234;-44
2023/01/14 05:10:15;;;;;;;5.43;0.70;;;;;;;-144.22;100.00;60274.75;6266001;28;20242;-44
2023/01/14 05:13:17;;;;;;;1.97;0.80;;;;;;;11.36;100.00;60274.75;6263830;28;20254;-45
2023/01/14 05:16:20;;;;;;;5.03;1.43;;;;;;;11.36;100.00;60274.75;6252400;28;20246;-45
2023/01/14 05:19:22;;;;;;;4.20;0.90;;;;;;;177.61;100.00;60274.75;6265112;28;20249;-44
2023/01/14 05:22:24;;;;;;;1.20;0.73;;;;;;;188.01;100.00;60274.75;6258107;28;20237;-44
2023/01/14 05:25:28;;;;;;;2.60;0.80;;;;;;;21.74;100.00;60274.75;6248298;28;20255;-44
2023/01/14 05:28:30;;;;;;;3.77;1.17;;;;;;;177.61;100.00;60274.75;6267802;28;20698;-44
2023/01/14 05:31:32;;;;;;;1.50;0.73;;;;;;;-144.22;100.00;60274.75;6247561;28;20651;-46
2023/01/14 05:34:34;;;;;;;2.60;0.80;;;;;;;-144.22;100.00;60274.75;6265644;28;20781;-44
2023/01/14 05:37:37;;;;;;;2.60;0.80;;;;;;;188.01;100.00;60274.75;6264445;28;20282;-44
2023/01/14 05:40:39;;;;;;;2.73;0.70;;;;;;;21.74;100.00;60274.75;6267147;28;20709;-44
2023/01/14 05:47:03;;;;;;;5.67;0.93;;;;;;;-144.22;100.00;60274.75;6252167;28;20335;-44
2023/01/14 05:50:05;;;;;;;1.53;0.60;;;;;;;188.01;100.00;60274.75;6264310;28;20240;-44
2023/01/14 05:53:08;;;;;;;4.30;0.90;;;;;;;188.01;100.00;60274.75;6266657;28;20256;-44
2023/01/14 05:56:10;;;;;;;3.47;0.97;;;;;;;-144.22;100.00;60274.75;6264051;28;20746;-44
2023/01/14 05:59:12;;;;;;;3.03;0.80;;;;;;;-144.22;100.00;60274.75;6264794;28;20231;-44
2023/01/14 06:08:43;;;;;;;4.97;1.00;;;;;;;10.06;100.00;60274.75;6265281;28;20230;-43
2023/01/14 06:11:46;;;;;;;3.73;0.70;;;;;;;-144.22;100.00;60274.75;6266586;28;20277;-44
2023/01/14 06:14:48;;;;;;;1.10;0.70;;;;;;;-144.22;100.00;60274.75;6266881;28;20235;-44
2023/01/14 06:18:08;;;;;;;4.27;1.03;;;;;;;4.26;100.00;60274.75;6265730;28;20648;-44
2023/01/14 06:21:16;;;;;;;4.63;0.63;;;;;;;11.36;100.00;60274.75;6262099;28;20242;-44
2023/01/14 06:24:18;;;;;;;2.90;0.80;;;;;;;-144.22;100.00;60274.75;6258604;28;20236;-44
2023/01/14 06:27:21;;;;;;;1.63;0.80;;;;;;;-144.22;100.00;60274.75;6264681;28;20238;-44
2023/01/14 06:30:23;;;;;;;1.63;0.90;;;;;;;-144.22;100.00;60274.75;6264163;28;20734;-45
2023/01/14 06:33:26;;;;;;;2.03;0.67;;;;;;;-144.22;100.00;60274.75;6266463;28;20223;-44
2023/01/14 06:36:29;;;;;;;2.67;0.77;;;;;;;-144.22;100.00;60274.75;6268748;28;20315;-44
2023/01/14 06:39:31;;;;;;;3.13;0.80;;;;;;;-144.22;100.00;60274.75;6268207;28;20231;-44
2023/01/14 06:42:33;;;;;;;3.10;0.63;;;;;;;4.87;100.00;60274.75;6268709;28;20300;-44
2023/01/14 06:45:36;;;;;;;2.40;0.80;;;;;;;4.87;100.00;60274.75;6269239;28;20222;-44
2023/01/14 06:48:39;;;;;;;4.67;0.80;;;;;;;6.17;100.00;60274.75;6248269;28;20248;-44
2023/01/14 06:51:42;;;;;;;2.67;0.80;;;;;;;4.01;100.00;60274.75;6269545;28;20320;-45
2023/01/14 06:54:47;;;;;;;3.37;0.80;;;;;;;21.74;100.00;60274.75;6267829;28;20231;-44
2023/01/14 06:57:49;;;;;;;3.43;0.83;;;;;;;11.36;100.00;60274.75;6268570;28;20323;-44
2023/01/14 07:00:55;;;;;;;2.40;0.87;;;;;;;4.87;100.00;60274.75;6268198;28;20238;-44
2023/01/14 07:03:57;;;;;;;2.97;0.70;;;;;;;188.01;100.00;60274.75;6269161;28;20238;-44
2023/01/14 07:06:59;;;;;;;2.67;0.90;;;;;;;188.01;100.00;60274.75;6265679;28;20235;-44
2023/01/14 07:10:02;;;;;;;3.97;0.70;;;;;;;188.01;100.00;60274.75;6268968;28;20298;-44
2023/01/14 07:13:04;;;;;;;3.17;0.70;;;;;;;-144.22;100.00;60274.75;6268381;28;20720;-44
2023/01/14 07:16:06;;;;;;;4.63;1.00;;;;;;;-144.22;100.00;60274.75;6266818;28;20253;-44
2023/01/14 07:19:11;;;;;;;3.00;0.80;;;;;;;-144.22;100.00;60274.75;6268955;28;20283;-44
2023/01/14 07:22:13;;;;;;;2.67;0.77;;;;;;;-144.22;100.00;60274.75;6265825;28;20239;-44
2023/01/14 07:25:16;;;;;;;3.47;0.63;;;;;;;-144.22;100.00;60274.75;6266779;28;20227;-46
2023/01/14 07:28:21;;;;;;;2.33;0.77;;;;;;;4.87;100.00;60274.75;6266182;28;20238;-44
2023/01/14 07:31:24;;;;;;;3.87;1.17;;;;;;;4.12;100.00;78292.19;6267294;28;20644;-45
2023/01/14 07:34:26;;;;;;;4.63;0.90;;;;;;;11.36;100.00;60274.75;6264462;28;20609;-46
2023/01/14 07:37:29;;;;;;;3.00;0.97;;;;;;;11.36;100.00;60274.75;6266186;28;20231;-44
2023/01/14 07:40:31;;;;;;;5.10;0.70;;;;;;;21.74;100.00;60274.75;6267102;28;20321;-46
2023/01/14 07:43:33;;;;;;;1.90;0.90;;;;;;;11.36;100.00;60274.75;6269994;28;20478;-44
2023/01/14 07:46:35;;;;;;;6.70;0.97;;;;;;;11.36;100.00;60274.75;6267044;28;20265;-44
2023/01/14 07:49:39;;;;;;;2.70;0.80;;;;;;;188.01;100.00;60274.75;6263555;28;20258;-46
2023/01/14 07:52:41;;;;;;;2.47;0.80;;;;;;;188.01;100.00;60274.75;6267176;28;20242;-44
2023/01/14 07:55:43;;;;;;;2.40;0.70;;;;;;;-144.22;100.00;60274.75;6267856;28;20251;-45
2023/01/14 07:58:47;;;;;;;2.40;0.60;;;;;;;188.01;100.00;60274.75;6266037;28;20234;-44
2023/01/14 08:01:49;;;;;;;2.60;0.70;;;;;;;188.01;100.00;60274.75;6271523;28;20240;-44
2023/01/14 08:04:52;;;;;;;2.87;0.50;;;;;;;188.01;100.00;60274.75;6267525;28;20553;-44
2023/01/14 08:07:54;;;;;;;3.77;0.80;;;;;;;-144.22;100.00;60274.75;6266729;28;20225;-44
2023/01/14 08:11:01;;;;;;;4.80;0.80;;;;;;;-144.22;100.00;60274.75;6267840;28;20229;-44
2023/01/14 08:14:03;;;;;;;4.43;0.93;;;;;;;-144.22;100.00;60274.75;6267107;28;20231;-44
2023/01/14 08:17:06;;;;;;;2.50;0.50;;;;;;;-144.22;100.00;60274.75;6270068;28;20280;-44
2023/01/14 08:20:10;;;;;;;2.33;0.70;;;;;;;4.87;100.00;60274.75;6267630;28;20710;-44
2023/01/14 08:23:12;;;;;;;1.97;0.70;;;;;;;188.01;100.00;60274.75;6265989;28;20232;-44
2023/01/14 08:26:14;;;;;;;3.47;0.80;;;;;;;188.01;100.00;60274.75;6266470;28;20235;-45
2023/01/14 08:29:17;;;;;;;3.13;0.90;;;;;;;21.74;100.00;60274.75;6269937;28;20262;-45
2023/01/14 08:32:19;;;;;;;4.23;0.97;;;;;;;-144.22;100.00;60274.75;6264773;28;20238;-44
2023/01/14 08:35:21;;;;;;;3.13;0.90;;;;;;;-144.22;100.00;60274.75;6267722;28;20238;-44
2023/01/14 08:38:23;;;;;;;3.00;1.07;;;;;;;-144.22;100.00;60274.75;6270473;28;20229;-44
2023/01/14 08:41:26;;;;;;;1.43;0.57;;;;;;;-144.22;100.00;60274.75;6265452;28;20229;-44
2023/01/14 08:44:29;;;;;;;2.23;0.70;;;;;;;-144.22;100.00;60274.75;6266902;28;20297;-44
2023/01/14 08:47:31;;;;;;;2.60;0.90;;;;;;;-144.22;100.00;60274.75;6265702;28;20230;-44
2023/01/14 08:50:34;;;;;;;4.33;1.33;;;;;;;-144.22;100.00;60274.75;6268490;28;20240;-44
2023/01/14 08:53:38;;;;;;;3.43;0.70;;;;;;;-144.22;100.00;60274.75;6265595;28;20232;-44
2023/01/14 08:56:41;;;;;;;1.83;0.60;;;;;;;-144.22;100.00;60274.75;6267131;28;20232;-43
2023/01/14 08:59:43;;;;;;;1.50;0.70;;;;;;;-144.22;100.00;60274.75;6251115;28;20363;-43
2023/01/14 09:02:45;;;;;;;1.50;0.87;;;;;;;-144.22;100.00;60274.75;6251251;28;20334;-43
2023/01/14 09:05:48;;;;;;;3.43;0.77;;;;;;;-144.22;100.00;60274.75;6266184;28;20224;-43
2023/01/14 09:18:55;;;;;;;3.77;0.87;;;;;;;8.77;100.00;60274.75;6266479;28;20261;-45
2023/01/14 09:21:57;;;;;;;2.30;0.50;;;;;;;-144.22;100.00;60274.75;6264004;28;20709;-43
2023/01/14 09:25:00;;;;;;;5.30;1.03;;;;;;;-144.22;100.00;60274.75;6263616;28;20741;-44
2023/01/14 09:28:03;;;;;;;2.10;1.40;;;;;;;-144.22;100.00;60274.75;6264319;28;20382;-44
2023/01/14 09:31:05;;;;;;;3.23;0.70;;;;;;;-144.22;100.00;60274.75;6266199;28;20236;-44
2023/01/14 09:34:07;;;;;;;2.43;0.90;;;;;;;-144.22;100.00;60274.75;6262596;28;20631;-43
2023/01/14 09:37:10;;;;;;;4.90;0.97;;;;;;;-144.22;100.00;60274.75;6264693;28;20260;-43
2023/01/14 09:40:13;;;;;;;3.30;0.80;;;;;;;-144.22;100.00;60274.75;6263167;28;20254;-45
2023/01/14 09:43:18;;;;;;;3.57;1.10;;;;;;;-144.22;100.00;60274.75;6263825;28;20225;-43
2023/01/14 09:46:25;;;;;;;2.77;0.87;;;;;;;-144.22;100.00;60274.75;6268140;28;20277;-43
2023/01/14 09:49:29;;;;;;;2.13;0.70;;;;;;;-144.22;100.00;60274.75;6260474;28;20233;-44
2023/01/14 09:52:53;;;;;;;3.27;0.90;;;;;;;-144.22;100.00;60274.75;6263406;28;20263;-44
2023/01/14 09:56:01;;;;;;;2.67;0.70;;;;;;;-144.22;100.00;60274.75;6263463;28;20278;-43
2023/01/14 09:59:32;;;;;;;7.07;1.20;;;;;;;-144.22;100.00;60274.75;6262940;28;20237;-43
2023/01/14 10:02:53;;;;;;;4.53;0.80;;;;;;;-144.22;100.00;60274.75;6220993;28;20357;-43
2023/01/14 10:06:01;;;;;;;2.30;0.60;;;;;;;8.07;100.00;60274.75;6260894;28;20227;-44
2023/01/14 10:09:13;;;;;;;5.70;1.13;;;;;;;-144.22;100.00;60274.75;6264143;28;20255;-46
2023/01/14 10:12:35;;;;;;;3.07;0.80;;;;;;;8.24;100.00;60274.75;6262710;28;20584;-44
2023/01/14 10:15:49;;;;;;;1.83;0.87;;;;;;;-144.22;100.00;60274.75;6265985;28;21802;-45
2023/01/14 10:19:01;;;;;;;3.57;0.80;;;;;;;8.37;100.00;60274.75;6262038;28;20231;-45
2023/01/14 10:22:13;;;;;;;3.37;0.67;;;;;;;-144.22;100.00;60274.75;6265937;28;20332;-44
2023/01/14 10:25:19;;;;;;;2.77;0.77;;;;;;;-144.22;100.00;60274.75;6264022;28;20246;-44
2023/01/14 10:28:26;;;;;;;4.77;1.10;;;;;;;-144.22;100.00;60274.75;6267876;28;20227;-45
2023/01/14 10:31:32;;;;;;;2.33;0.67;;;;;;;-144.22;100.00;60274.75;6266095;28;20230;-45
2023/01/14 10:34:40;;;;;;;3.33;0.77;;;;;;;-144.22;100.00;60274.75;6264220;28;20242;-44
2023/01/14 10:37:42;;;;;;;5.67;1.10;;;;;;;-144.22;100.00;60274.75;6268622;28;20257;-45
2023/01/14 10:40:46;;;;;;;3.43;0.90;;;;;;;-144.22;100.00;60274.75;6268256;28;20285;-44
2023/01/14 10:43:50;;;;;;;2.43;0.83;;;;;;;-144.22;100.00;60274.75;6272554;28;20257;-44
2023/01/14 10:46:59;;;;;;;2.73;0.73;;;;;;;-144.22;100.00;60274.75;6271755;28;20255;-44
2023/01/14 10:50:15;;;;;;;1.97;0.77;;;;;;;-144.22;100.00;60274.75;6267014;28;20235;-44
2023/01/14 10:53:24;;;;;;;2.60;1.10;;;;;;;-144.22;100.00;60274.75;6264175;28;20362;-44
2023/01/14 10:56:27;;;;;;;2.50;0.73;;;;;;;-144.22;100.00;60274.75;6271260;28;20634;-44
2023/01/14 10:59:49;;;;;;;3.60;0.87;;;;;;;-144.22;100.00;60274.75;6272879;28;20703;-44
2023/01/14 11:02:52;;;;;;;2.03;0.70;;;;;;;-144.22;100.00;60274.75;6268025;28;20235;-46
2023/01/14 11:06:13;;;;;;;1.93;1.10;;;;;;;10.06;100.00;60274.75;6274648;28;20504;-46
2023/01/14 11:09:27;;;;;;;3.70;0.80;;;;;;;-144.22;100.00;60274.75;6270935;28;20314;-44
2023/01/14 11:12:32;;;;;;;5.40;0.87;;;;;;;9.42;100.00;60274.75;6268146;28;20482;-45
2023/01/14 11:15:38;;;;;;;3.83;0.73;;;;;;;-144.22;100.00;60274.75;6269273;28;20225;-44
2023/01/14 11:18:49;;;;;;;1.47;0.73;;;;;;;9.50;100.00;60274.75;6266911;28;20618;-44
2023/01/14 11:21:55;;;;;;;1.90;0.80;;;;;;;-144.22;100.00;60274.75;6267897;28;20764;-44
2023/01/14 11:24:58;;;;;;;2.37;0.90;;;;;;;9.80;100.00;60274.75;6269117;28;20229;-44
2023/01/14 11:28:04;;;;;;;3.67;0.93;;;;;;;-144.22;100.00;60274.75;6265498;28;20303;-44
2023/01/14 11:31:07;;;;;;;3.03;0.60;;;;;;;188.01;100.00;60274.75;6268378;28;20233;-44
2023/01/14 11:34:28;;;;;;;2.50;0.80;;;;;;;-144.22;100.00;60274.75;6267425;28;20234;-44
2023/01/14 11:37:45;;;;;;;2.03;0.70;;;;;;;10.06;100.00;60274.75;6263000;28;20268;-46
2023/01/14 11:44:13;;;;;;;1.80;0.73;;;;;;;10.14;100.00;60274.75;6260562;28;20697;-44
2023/01/14 11:47:19;;;;;;;1.80;0.80;;;;;;;-144.22;100.00;60274.75;6267658;28;20373;-44
2023/01/14 11:50:23;;;;;;;2.20;0.60;;;;;;;-144.22;100.00;60274.75;6267343;28;20240;-44
2023/01/14 11:53:45;;;;;;;2.60;1.03;;;;;;;188.01;100.00;60274.75;6268209;28;20220;-44
2023/01/14 11:56:48;;;;;;;3.73;0.80;;;;;;;-144.22;100.00;60274.75;6267684;28;20244;-45
2023/01/14 11:59:52;;;;;;;2.63;0.50;;;;;;;-144.22;100.00;60274.75;6267997;28;20244;-44
2023/01/14 12:03:05;;;;;;;2.30;0.87;;;;;;;-144.22;100.00;60274.75;6266071;28;20238;-44
2023/01/14 12:06:13;;;;;;;2.23;0.90;;;;;;;-144.22;100.00;60274.75;6268902;28;20597;-44
2023/01/14 12:09:45;;;;;;;1.90;0.73;;;;;;;-144.22;100.00;60274.75;6272059;28;20224;-44
2023/01/14 12:16:48;;;;;;;2.13;0.70;;;;;;;-144.22;100.00;60274.75;6267118;28;20375;-45
2023/01/14 12:20:12;;;;;;;3.00;1.00;;;;;;;-144.22;100.00;60274.75;6269905;28;20815;-45
2023/01/14 12:23:20;;;;;;;2.17;0.80;;;;;;;-144.22;100.00;60274.75;6267012;28;20302;-44
2023/01/14 12:26:27;;;;;;;3.23;0.77;;;;;;;-144.22;100.00;60274.75;6266069;28;20242;-45
2023/01/14 12:29:37;;;;;;;1.00;0.53;;;;;;;-144.22;100.00;60274.75;6266519;28;20245;-45
2023/01/14 12:32:45;;;;;;;2.13;0.90;;;;;;;-144.22;100.00;60274.75;6266209;28;20224;-44
2023/01/14 12:35:56;;;;;;;3.57;1.00;;;;;;;-144.22;100.00;60274.75;6237264;28;20868;-45
2023/01/14 12:46:10;;;;;;;1.87;1.00;;;;;;;-144.22;100.00;60274.75;6241774;28;20246;-45
2023/01/14 12:49:13;;;;;;;2.77;0.57;;;;;;;-144.22;100.00;60274.75;6241694;28;20734;-46
2023/01/14 12:52:25;;;;;;;1.27;0.73;;;;;;;188.01;100.00;60274.75;6241416;28;20371;-45
2023/01/14 12:55:37;;;;;;;1.97;0.80;;;;;;;12.59;100.00;60274.75;6241943;28;20272;-45
2023/01/14 12:58:42;;;;;;;2.13;0.60;;;;;;;13.08;100.00;60274.75;6241285;28;20847;-45
2023/01/14 13:01:58;;;;;;;1.97;0.70;;;;;;;21.74;100.00;60274.75;6240798;28;20810;-45
2023/01/14 13:05:08;;;;;;;1.63;0.60;;;;;;;16.47;100.00;60274.75;6243318;28;20292;-45
2023/01/14 13:08:32;;;;;;;1.93;0.60;;;;;;;17.48;100.00;60274.75;6237846;28;20402;-46
2023/01/14 13:11:47;;;;;;;1.67;0.70;;;;;;;17.85;100.00;60274.75;6233579;28;20230;-47
2023/01/14 13:15:13;;;;;;;2.33;0.70;;;;;;;17.44;100.00;60274.75;6236258;28;20603;-46
2023/01/14 13:18:34;;;;;;;1.90;0.70;;;;;;;16.55;100.00;60274.75;6224740;28;20250;-47
2023/01/14 13:21:56;;;;;;;1.10;0.50;;;;;;;-144.22;100.00;60274.75;6229513;28;20338;-44
2023/01/14 13:25:48;;;;;;;4.33;1.07;;;;;;;-144.22;100.00;60274.75;6228030;28;20595;-44
2023/01/14 13:29:15;;;;;;;2.43;0.97;;;;;;;-144.22;100.00;60274.75;6202474;28;20262;-45
2023/01/14 13:32:51;;;;;;;2.50;0.63;;;;;;;-144.22;100.00;60274.75;6201401;28;20242;-44
2023/01/14 13:36:11;;;;;;;3.40;0.93;;;;;;;-144.22;100.00;60274.75;6200063;28;20243;-44
2023/01/14 13:39:18;;;;;;;2.93;0.90;;;;;;;-144.22;100.00;60274.75;6200401;28;20304;-45
2023/01/14 13:42:26;;;;;;;1.90;0.70;;;;;;;9.43;100.00;60274.75;6204365;28;20240;-45
2023/01/14 13:45:29;;;;;;;1.43;0.50;;;;;;;-144.22;100.00;60274.75;6201488;28;20241;-45
2023/01/14 13:48:38;;;;;;;2.50;0.67;;;;;;;-144.22;100.00;60274.75;6203765;28;20243;-44
2023/01/14 13:51:44;;;;;;;2.40;1.00;;;;;;;-144.22;100.00;60274.75;6204885;28;20237;-44
2023/01/14 13:55:11;;;;;;;2.73;0.90;;;;;;;-144.22;100.00;60274.75;6207643;28;20739;-44
2023/01/14 13:58:26;;;;;;;4.47;1.20;;;;;;;-144.22;100.00;60274.75;6204422;28;20310;-44
2023/01/14 14:01:31;;;;;;;2.70;0.60;;;;;;;-144.22;100.00;60274.75;6232055;28;20698;-44
2023/01/14 14:04:55;;;;;;;2.20;0.90;;;;;;;-144.22;100.00;60274.75;6234936;28;20515;-45
2023/01/14 14:08:05;;;;;;;2.63;1.10;;;;;;;-144.22;100.00;60274.75;6229148;28;20659;-43
2023/01/14 14:11:12;;;;;;;2.97;0.70;;;;;;;-144.22;100.00;60274.75;6236386;28;20244;-44
2023/01/14 14:14:26;;;;;;;4.40;0.87;;;;;;;-144.22;100.00;60274.75;6232755;28;20714;-44
2023/01/14 14:17:33;;;;;;;2.40;0.60;;;;;;;-144.22;100.00;60274.75;6232342;28;20254;-44
2023/01/14 14:20:41;;;;;;;2.17;0.67;;;;;;;-144.22;100.00;60274.75;6233799;28;20248;-45
2023/01/14 14:23:55;;;;;;;2.10;0.73;;;;;;;7.11;100.00;60274.75;6234311;28;20236;-44
2023/01/14 14:27:00;;;;;;;2.33;1.40;;;;;;;-144.22;100.00;60274.75;6231496;28;20785;-44
2023/01/14 14:30:32;;;;;;;2.43;1.10;;;;;;;-144.22;100.00;60274.75;6233354;28;20705;-44
2023/01/14 14:33:40;;;;;;;4.20;1.43;;;;;;;-144.22;100.00;60274.75;6232601;28;20609;-45
2023/01/14 14:36:47;;;;;;;4.60;1.60;;;;;;;-144.22;100.00;60274.75;6257048;28;20235;-45
2023/01/14 14:39:54;;;;;;;5.87;1.50;;;;;;;-144.22;100.00;60274.75;6254035;28;21282;-45
2023/01/14 14:42:58;;;;;;;3.13;1.30;;;;;;;-144.22;100.00;60274.75;6253148;28;20623;-45
2023/01/14 14:46:07;;;;;;;3.60;1.27;;;;;;;188.01;100.00;60274.75;6256933;28;20742;-44
2023/01/14 14:49:27;;;;;;;5.17;1.30;;;;;;;-144.22;100.00;60274.75;6256175;28;20286;-45
2023/01/14 14:52:37;;;;;;;2.37;1.07;;;;;;;-144.22;100.00;60274.75;6256232;28;20324;-44
2023/01/14 14:55:51;;;;;;;6.63;1.00;;;;;;;-144.22;100.00;60274.75;6256896;28;20256;-44